Time;durP1;ratioP1;P1;durP2;ratioP2;P2;SDS_P1;SDS_P2;PMS_P1;PMS_P2;Temp;Humidity;BMP_temperature;BMP_pressure;BME280_temperature;BME280_humidity;BME280_pressure;Samples;Min_cycle;Max_cycle;Signal;HPM_P1;HPM_P2
2021/07/22 00:03:27;;;;;;;7.88;5.18;;;;;;;17.23;45.31;101813.19;7991058;28;20044;-68
2021/07/22 00:07:18;;;;;;;9.20;4.93;;;;;;;17.21;45.36;101807.13;7994282;28;20071;-67
2021/07/22 00:11:09;;;;;;;9.27;4.95;;;;;;;17.20;45.35;101808.94;7976471;28;20036;-68
2021/07/22 00:14:59;;;;;;;11.80;6.10;;;;;;;17.19;45.63;101801.97;7978863;28;20052;-68
2021/07/22 00:18:50;;;;;;;8.70;5.32;;;;;;;17.19;45.48;101809.09;7977875;28;20138;-67
2021/07/22 00:22:41;;;;;;;8.90;6.28;;;;;;;17.13;45.56;101804.25;7979781;28;20490;-67
2021/07/22 00:26:31;;;;;;;8.10;5.68;;;;;;;17.11;45.67;101799.06;7982512;28;20032;-69
2021/07/22 00:30:23;;;;;;;7.88;5.47;;;;;;;17.13;45.92;101801.59;7985104;28;20042;-69
2021/07/22 00:34:14;;;;;;;8.10;5.30;;;;;;;17.05;45.80;101797.75;7986244;28;20397;-69
2021/07/22 00:38:04;;;;;;;8.52;5.65;;;;;;;17.07;45.75;101803.75;7985783;28;20033;-67
2021/07/22 00:41:55;;;;;;;8.63;5.40;;;;;;;17.06;45.79;101801.25;7986561;28;20080;-67
2021/07/22 00:45:47;;;;;;;7.93;5.20;;;;;;;17.02;46.05;101802.44;7987839;28;20048;-68
2021/07/22 00:49:39;;;;;;;9.55;5.60;;;;;;;16.99;46.05;101802.66;7990294;28;20057;-68
2021/07/22 00:53:32;;;;;;;9.63;5.75;;;;;;;16.97;46.39;101797.50;7991574;28;20025;-68
2021/07/22 00:57:25;;;;;;;8.07;5.38;;;;;;;16.94;46.43;101800.41;7975593;28;20406;-68
2021/07/22 01:01:16;;;;;;;8.68;5.60;;;;;;;16.93;46.44;101798.69;7972421;28;20531;-68
2021/07/22 01:05:08;;;;;;;7.68;5.32;;;;;;;16.93;46.35;101797.84;7984687;28;20038;-67
2021/07/22 01:08:59;;;;;;;8.60;5.35;;;;;;;16.93;46.45;101795.19;7960800;28;20028;-68
2021/07/22 01:12:54;;;;;;;9.95;6.40;;;;;;;16.94;46.76;101799.56;7981862;28;20031;-67
2021/07/22 01:16:45;;;;;;;9.55;6.13;;;;;;;16.94;46.79;101799.56;7981587;28;20109;-68
2021/07/22 01:20:37;;;;;;;8.88;5.68;;;;;;;16.93;46.77;101790.75;7983673;28;20036;-67
2021/07/22 01:24:28;;;;;;;8.63;5.20;;;;;;;16.93;46.78;101796.06;7984493;28;20029;-68
2021/07/22 01:28:31;;;;;;;8.88;6.10;;;;;;;16.92;46.67;101786.38;7985928;28;20445;-68
2021/07/22 01:32:22;;;;;;;12.50;6.55;;;;;;;16.90;46.73;101783.00;7986874;28;20478;-68
2021/07/22 01:36:22;;;;;;;10.27;6.22;;;;;;;16.90;46.68;101788.31;7986123;28;20036;-67
2021/07/22 01:40:14;;;;;;;11.65;6.35;;;;;;;16.87;46.81;101787.69;7988696;28;20769;-69
2021/07/22 01:44:06;;;;;;;9.52;7.03;;;;;;;16.82;46.92;101790.72;7978185;28;20038;-68
2021/07/22 01:47:58;;;;;;;10.30;6.80;;;;;;;16.79;46.67;101787.44;7975847;28;20088;-68
2021/07/22 01:51:49;;;;;;;11.50;6.20;;;;;;;16.74;46.92;101782.47;7978450;28;20029;-67
2021/07/22 01:55:40;;;;;;;12.32;6.38;;;;;;;16.69;46.78;101781.16;7978114;28;20025;-69
2021/07/22 01:59:35;;;;;;;10.45;6.75;;;;;;;16.64;46.81;101787.66;7977637;28;20032;-69
2021/07/22 02:03:26;;;;;;;8.95;6.22;;;;;;;16.58;46.74;101774.88;7975680;28;20034;-68
2021/07/22 02:07:23;;;;;;;;;;;;;;;16.40;46.55;101781.59;7971540;28;20405;-67
2021/07/22 02:11:23;;;;;;;8.13;5.60;;;;;;;16.44;46.73;101783.06;7980317;28;20011;-68
2021/07/22 02:15:14;;;;;;;14.45;5.63;;;;;;;16.41;46.95;101785.09;7979937;28;20037;-68
2021/07/22 02:19:06;;;;;;;9.70;6.28;;;;;;;16.31;47.02;101777.00;7981449;28;20037;-69
2021/07/22 02:22:58;;;;;;;11.30;5.95;;;;;;;16.33;46.96;101785.66;7982513;28;20405;-68
2021/07/22 02:27:24;;;;;;;9.77;6.40;;;;;;;16.24;47.07;101789.03;7941108;28;20077;-68
2021/07/22 02:31:17;;;;;;;10.15;6.40;;;;;;;16.21;47.17;101791.91;7992449;28;20029;-70
2021/07/22 02:35:09;;;;;;;14.93;6.32;;;;;;;16.14;47.21;101780.06;7985418;28;20029;-68
2021/07/22 02:39:19;;;;;;;10.35;5.30;;;;;;;16.06;47.10;101780.63;7981898;28;20116;-68
2021/07/22 02:43:11;;;;;;;9.55;6.00;;;;;;;16.07;47.22;101789.41;7971181;28;20052;-67
2021/07/22 02:47:02;;;;;;;8.80;6.07;;;;;;;16.03;47.35;101791.47;7984656;28;20116;-68
2021/07/22 02:50:53;;;;;;;8.93;6.18;;;;;;;15.98;47.80;101793.59;7985118;28;20041;-68
2021/07/22 02:54:46;;;;;;;12.43;6.38;;;;;;;15.95;47.55;101791.19;7984721;28;20450;-69
2021/07/22 02:58:37;;;;;;;7.82;5.68;;;;;;;15.92;47.63;101793.19;7984383;28;20029;-68
2021/07/22 03:02:28;;;;;;;11.00;5.70;;;;;;;15.88;47.61;101795.22;7986459;28;20410;-70
2021/07/22 03:06:20;;;;;;;10.93;6.00;;;;;;;15.84;47.71;101790.25;7988012;28;20029;-68
2021/07/22 03:10:20;;;;;;;9.07;5.28;;;;;;;15.80;47.76;101794.94;7985727;28;20078;-68
2021/07/22 03:14:11;;;;;;;8.75;5.28;;;;;;;15.72;47.79;101784.91;7978718;28;20021;-68
2021/07/22 03:18:02;;;;;;;10.48;5.60;;;;;;;15.71;48.06;101793.81;7982231;28;20474;-68
2021/07/22 03:21:53;;;;;;;8.90;5.05;;;;;;;15.68;47.98;101788.75;7990118;28;20090;-68
2021/07/22 03:26:04;;;;;;;10.98;6.22;;;;;;;15.64;48.03;101800.53;7970539;28;20083;-67
2021/07/22 03:30:05;;;;;;;9.35;6.75;;;;;;;15.59;47.95;101792.06;7992198;28;20029;-68
2021/07/22 03:34:02;;;;;;;13.32;6.68;;;;;;;15.51;47.88;101775.03;7976078;28;20041;-68
2021/07/22 03:38:02;;;;;;;12.95;6.68;;;;;;;15.53;48.21;101787.22;7974990;28;20089;-67
2021/07/22 03:41:54;;;;;;;11.95;6.45;;;;;;;15.55;48.32;101787.09;7983577;28;20034;-68
2021/07/22 03:46:03;;;;;;;9.35;6.15;;;;;;;15.51;48.30;101788.28;7983455;28;20026;-68
2021/07/22 03:49:57;;;;;;;12.38;5.13;;;;;;;15.48;48.33;101789.34;7991301;28;20053;-68
2021/07/22 03:54:14;;;;;;;14.82;5.97;;;;;;;15.46;48.33;101787.75;7984584;28;20423;-67
2021/07/22 03:58:05;;;;;;;10.65;5.85;;;;;;;15.45;48.48;101783.44;7988398;28;20033;-67
2021/07/22 04:02:05;;;;;;;18.08;6.10;;;;;;;15.39;48.61;101786.50;7991335;28;20083;-67
2021/07/22 04:06:04;;;;;;;8.50;5.25;;;;;;;15.41;48.50;101793.41;7991229;28;20035;-67
2021/07/22 04:09:56;;;;;;;7.68;5.22;;;;;;;15.42;48.62;101791.59;7978796;28;20033;-68
2021/07/22 04:13:56;;;;;;;9.80;5.60;;;;;;;15.33;48.96;101785.19;7991625;28;20434;-68
2021/07/22 04:17:59;;;;;;;12.15;5.65;;;;;;;15.35;48.72;101783.25;7993356;28;20104;-68
2021/07/22 04:22:10;;;;;;;9.52;5.88;;;;;;;15.39;48.82;101791.81;7982510;28;20523;-67
2021/07/22 04:26:14;;;;;;;9.65;5.15;;;;;;;15.39;48.99;101787.38;7977530;28;20036;-68
2021/07/22 04:30:13;;;;;;;10.45;5.20;;;;;;;15.41;49.06;101787.25;7986321;28;20084;-68
2021/07/22 04:34:29;;;;;;;7.88;5.20;;;;;;;15.42;49.22;101781.84;7980107;28;20045;-68
2021/07/22 04:38:46;;;;;;;12.25;6.35;;;;;;;15.48;49.36;101786.72;7983138;28;20045;-67
2021/07/22 04:42:52;;;;;;;17.88;5.90;;;;;;;15.52;49.39;101788.19;7985554;28;20037;-69
2021/07/22 04:47:02;;;;;;;10.40;6.13;;;;;;;15.57;49.53;101793.16;7987697;28;20043;-69
2021/07/22 04:51:19;;;;;;;12.93;6.85;;;;;;;15.62;49.43;101786.53;7978524;28;20076;-69
2021/07/22 04:55:28;;;;;;;15.80;7.22;;;;;;;15.69;49.70;101781.66;7980005;28;20025;-67
2021/07/22 04:59:21;;;;;;;13.82;7.80;;;;;;;15.76;49.62;101790.84;7990992;28;20120;-69
2021/07/22 05:03:12;;;;;;;13.60;7.90;;;;;;;15.86;49.54;101788.34;7996688;28;20124;-69
2021/07/22 05:07:05;;;;;;;13.88;7.80;;;;;;;15.94;49.69;101786.84;7991320;28;20497;-69
2021/07/22 05:11:07;;;;;;;15.45;8.52;;;;;;;16.02;49.68;101788.91;7973366;28;20497;-68
2021/07/22 05:15:05;;;;;;;19.77;9.23;;;;;;;16.21;49.83;101780.44;7975692;28;20405;-69
2021/07/22 05:19:19;;;;;;;13.32;8.60;;;;;;;16.45;49.86;101787.38;7958615;28;20536;-69
2021/07/22 05:23:15;;;;;;;17.17;9.10;;;;;;;16.69;49.71;101789.13;7965919;28;20069;-69
2021/07/22 05:27:16;;;;;;;19.25;9.07;;;;;;;17.02;49.68;101784.72;7983826;28;20112;-68
2021/07/22 05:31:28;;;;;;;14.35;8.00;;;;;;;17.39;49.82;101787.09;7974035;28;20132;-67
2021/07/22 05:35:45;;;;;;;19.00;8.52;;;;;;;17.55;49.39;101782.22;7969277;28;20045;-69
2021/07/22 05:39:58;;;;;;;17.90;8.32;;;;;;;17.66;49.28;101797.28;7978679;28;20041;-68
2021/07/22 05:43:49;;;;;;;23.70;8.48;;;;;;;17.69;49.26;101791.75;7987852;28;20029;-69
2021/07/22 05:47:40;;;;;;;21.35;7.90;;;;;;;17.71;49.31;101789.81;7990268;28;20200;-69
2021/07/22 05:51:32;;;;;;;19.65;7.68;;;;;;;17.70;49.22;101790.78;7990768;28;20074;-68
2021/07/22 05:55:22;;;;;;;15.43;7.53;;;;;;;17.76;49.53;101793.78;7961213;28;20663;-70
2021/07/22 05:59:13;;;;;;;18.92;7.70;;;;;;;17.84;49.44;101793.16;7962742;28;20040;-68
2021/07/22 06:03:07;;;;;;;22.88;7.63;;;;;;;18.11;49.48;101788.19;7982066;28;20037;-68
2021/07/22 06:06:57;;;;;;;17.80;7.53;;;;;;;18.60;49.59;101795.59;7986936;28;20485;-68
2021/07/22 06:10:48;;;;;;;21.08;9.52;;;;;;;19.17;49.59;101788.88;7972390;28;20514;-69
2021/07/22 06:14:38;;;;;;;26.05;8.60;;;;;;;19.80;49.38;101803.59;7973369;28;20048;-69
2021/07/22 06:18:30;;;;;;;37.25;8.98;;;;;;;20.44;49.00;101785.19;7986368;28;20053;-68
2021/07/22 06:22:20;;;;;;;16.95;8.20;;;;;;;21.07;48.46;101780.09;7978011;28;20037;-68
2021/07/22 06:26:11;;;;;;;21.40;8.63;;;;;;;21.70;48.04;101789.03;7991983;28;20378;-68
2021/07/22 06:30:03;;;;;;;24.38;8.63;;;;;;;22.29;47.36;101788.41;7993575;28;20435;-69
2021/07/22 06:33:55;;;;;;;23.65;8.75;;;;;;;22.84;46.86;101785.44;7991755;28;20021;-68
2021/07/22 06:37:48;;;;;;;23.55;9.77;;;;;;;23.38;46.12;101785.03;7959886;28;20046;-68
2021/07/22 06:41:48;;;;;;;17.60;8.95;;;;;;;23.95;45.29;101778.97;7990859;28;20035;-68
2021/07/22 06:45:40;;;;;;;28.90;10.05;;;;;;;24.50;45.22;101782.63;7981895;28;20033;-68
2021/07/22 06:49:31;;;;;;;16.33;8.75;;;;;;;25.05;44.37;101777.31;7980528;28;20025;-69
2021/07/22 06:53:22;;;;;;;12.95;7.95;;;;;;;25.62;43.79;101777.84;7978838;28;20031;-70
2021/07/22 06:57:13;;;;;;;18.05;9.57;;;;;;;26.14;43.47;101783.34;7978510;28;20032;-70
2021/07/22 07:01:04;;;;;;;15.82;10.00;;;;;;;26.62;42.67;101777.72;7980697;28;20028;-71
2021/07/22 07:04:55;;;;;;;14.02;9.75;;;;;;;27.08;41.95;101772.94;7980730;28;20040;-70
2021/07/22 07:08:48;;;;;;;15.38;9.18;;;;;;;27.45;41.51;101776.34;7982056;28;20041;-66
2021/07/22 07:12:40;;;;;;;11.20;8.02;;;;;;;27.91;40.37;101781.41;7983442;28;20438;-69
2021/07/22 07:16:31;;;;;;;15.73;8.65;;;;;;;28.40;39.38;101776.00;7984963;28;20543;-66
2021/07/22 07:20:21;;;;;;;11.73;8.95;;;;;;;28.83;39.12;101772.13;7951641;28;20038;-66
2021/07/22 07:24:12;;;;;;;12.93;9.30;;;;;;;29.30;38.30;101770.50;7934682;28;20033;-68
2021/07/22 07:28:04;;;;;;;12.70;8.38;;;;;;;29.81;37.16;101770.84;7933627;28;20030;-67
2021/07/22 07:31:59;;;;;;;12.43;8.30;;;;;;;29.84;37.30;101764.16;7940639;28;20049;-69
2021/07/22 07:35:49;;;;;;;14.38;7.40;;;;;;;30.09;36.62;101760.63;7938981;28;20140;-67
2021/07/22 07:39:40;;;;;;;11.15;7.47;;;;;;;30.11;36.48;101771.28;7941780;28;20865;-68
2021/07/22 07:43:31;;;;;;;12.15;7.80;;;;;;;29.97;36.43;101769.59;7940784;28;20034;-68
2021/07/22 07:47:21;;;;;;;10.93;6.93;;;;;;;29.68;35.89;101770.81;7942431;28;20675;-68
2021/07/22 07:51:12;;;;;;;11.40;7.63;;;;;;;29.74;35.83;101770.84;7950518;28;20037;-67
2021/07/22 07:55:05;;;;;;;16.50;7.68;;;;;;;29.19;35.72;101771.91;7953992;28;20029;-67
2021/07/22 07:58:55;;;;;;;18.35;7.80;;;;;;;28.53;36.31;101770.69;7960753;28;20037;-67
2021/07/22 08:02:47;;;;;;;10.45;6.97;;;;;;;27.92;36.57;101774.97;7961091;28;20048;-68
2021/07/22 08:06:38;;;;;;;11.35;7.10;;;;;;;27.34;36.49;101768.72;7952194;28;20099;-70
2021/07/22 08:10:29;;;;;;;9.48;6.43;;;;;;;26.91;36.70;101775.84;7949238;28;20033;-67
2021/07/22 08:14:19;;;;;;;9.15;6.43;;;;;;;26.46;37.04;101771.47;7945859;28;20042;-67
2021/07/22 08:18:11;;;;;;;13.02;7.50;;;;;;;26.09;37.02;101766.09;7939182;28;20034;-71
2021/07/22 08:22:02;;;;;;;9.85;6.70;;;;;;;25.77;37.39;101766.34;7934295;28;20041;-70
2021/07/22 08:25:52;;;;;;;11.13;6.50;;;;;;;25.49;37.52;101760.63;7938553;28;20026;-69
2021/07/22 08:29:43;;;;;;;11.43;7.43;;;;;;;25.30;37.63;101767.28;7939464;28;20037;-69
2021/07/22 08:33:34;;;;;;;11.25;7.28;;;;;;;25.19;37.58;101763.09;7942255;28;20646;-70
2021/07/22 08:37:24;;;;;;;11.25;6.63;;;;;;;25.09;37.95;101778.63;7948332;28;20029;-69
2021/07/22 08:41:16;;;;;;;8.43;6.15;;;;;;;24.96;37.88;101766.75;7947830;28;20017;-70
2021/07/22 08:45:07;;;;;;;9.75;6.30;;;;;;;24.81;37.71;101772.00;7950647;28;20481;-69
2021/07/22 08:48:59;;;;;;;9.13;6.40;;;;;;;24.65;37.93;101764.81;7940372;28;20149;-69
2021/07/22 08:52:51;;;;;;;9.10;6.28;;;;;;;24.55;38.05;101774.91;7942912;28;20477;-68
2021/07/22 08:56:41;;;;;;;7.40;5.20;;;;;;;24.56;37.88;101767.69;7947744;28;20033;-68
2021/07/22 09:00:32;;;;;;;9.60;6.35;;;;;;;24.60;37.72;101764.50;7937695;28;20033;-70
2021/07/22 09:04:23;;;;;;;10.25;7.07;;;;;;;24.75;38.18;101764.63;7936020;28;20112;-69
2021/07/22 09:08:14;;;;;;;13.40;7.32;;;;;;;24.91;38.03;101761.06;7936704;28;20038;-70
2021/07/22 09:12:04;;;;;;;12.52;7.10;;;;;;;25.05;37.88;101755.81;7936176;28;20034;-71
2021/07/22 09:15:55;;;;;;;13.95;8.02;;;;;;;25.13;37.62;101765.69;7939801;28;20725;-68
2021/07/22 09:19:46;;;;;;;12.90;8.45;;;;;;;25.11;37.59;101756.94;7936644;28;20034;-70
2021/07/22 09:23:36;;;;;;;11.25;7.38;;;;;;;25.10;37.99;101757.97;7935976;28;20049;-68
2021/07/22 09:27:30;;;;;;;11.13;7.45;;;;;;;25.10;37.57;101758.81;7938137;28;20040;-69
2021/07/22 09:31:26;;;;;;;13.05;8.07;;;;;;;25.10;37.76;101758.81;7931888;28;20037;-71
2021/07/22 09:35:21;;;;;;;18.88;9.20;;;;;;;25.09;37.70;101770.56;7934707;28;20030;-69
2021/07/22 09:39:19;;;;;;;11.50;7.47;;;;;;;25.06;37.88;101754.78;7935715;28;20044;-68
2021/07/22 09:43:10;;;;;;;11.73;7.20;;;;;;;25.08;37.78;101749.22;7947474;28;20052;-68
2021/07/22 09:47:03;;;;;;;15.25;8.85;;;;;;;25.13;38.01;101752.22;7947840;28;20051;-68
2021/07/22 09:50:54;;;;;;;10.63;7.53;;;;;;;25.15;38.06;101750.19;7941651;28;20029;-68
2021/07/22 09:54:45;;;;;;;11.30;7.10;;;;;;;25.15;37.88;101750.19;7936470;28;20104;-69
2021/07/22 09:58:36;;;;;;;10.15;5.75;;;;;;;25.21;37.51;101744.97;7937799;28;20037;-70
2021/07/22 10:02:27;;;;;;;7.30;4.90;;;;;;;25.27;37.29;101743.44;7940585;28;20043;-69
2021/07/22 10:06:19;;;;;;;8.48;5.38;;;;;;;25.28;37.49;101734.31;7935622;28;20105;-70
2021/07/22 10:10:12;;;;;;;8.52;5.68;;;;;;;25.42;37.43;101740.81;7944391;28;20045;-68
2021/07/22 10:14:03;;;;;;;8.13;5.18;;;;;;;25.48;37.41;101746.31;7935343;28;20030;-69
2021/07/22 10:17:58;;;;;;;8.63;5.28;;;;;;;25.61;37.24;101734.97;7935053;28;20437;-69
2021/07/22 10:21:49;;;;;;;9.00;5.88;;;;;;;25.64;36.99;101727.41;7933922;28;20037;-69
2021/07/22 10:25:40;;;;;;;6.85;5.07;;;;;;;25.76;37.17;101738.59;7935943;28;20116;-69
2021/07/22 10:29:33;;;;;;;16.83;6.60;;;;;;;25.75;37.25;101728.81;7937460;28;20033;-69
2021/07/22 10:33:24;;;;;;;9.43;5.95;;;;;;;25.73;36.77;101727.34;7933944;28;20053;-68
2021/07/22 10:37:19;;;;;;;7.72;5.65;;;;;;;25.71;36.57;101716.75;7939003;28;20513;-71
2021/07/22 10:41:33;;;;;;;10.55;6.47;;;;;;;25.67;36.96;101716.28;7948474;28;20152;-69
2021/07/22 10:45:24;;;;;;;9.00;6.03;;;;;;;25.65;36.99;101712.91;7944542;28;20041;-69
2021/07/22 10:49:15;;;;;;;12.13;6.65;;;;;;;25.63;37.01;101708.75;7937269;28;20038;-68
2021/07/22 10:53:06;;;;;;;8.57;6.45;;;;;;;25.63;37.01;101711.44;7937169;28;20045;-69
2021/07/22 10:56:57;;;;;;;11.73;6.63;;;;;;;25.61;36.60;101703.53;7936378;28;20030;-67
2021/07/22 11:00:47;;;;;;;10.93;7.13;;;;;;;25.60;36.61;101706.41;7936690;28;20092;-70
2021/07/22 11:04:39;;;;;;;9.63;6.90;;;;;;;25.57;36.91;101704.06;7940014;28;20029;-69
2021/07/22 11:08:32;;;;;;;19.38;7.07;;;;;;;25.54;36.94;101693.69;7940853;28;20030;-69
2021/07/22 11:12:32;;;;;;;12.23;7.55;;;;;;;25.49;36.98;101699.59;7940328;28;20108;-68
2021/07/22 11:16:29;;;;;;;11.65;6.45;;;;;;;25.44;37.34;101696.59;7941079;28;20079;-69
2021/07/22 11:20:19;;;;;;;12.00;7.15;;;;;;;25.37;37.33;101694.78;7936960;28;20038;-68
2021/07/22 11:24:18;;;;;;;14.23;8.68;;;;;;;25.33;37.32;101688.91;7939352;28;20056;-68
2021/07/22 11:28:10;;;;;;;13.30;8.13;;;;;;;25.32;37.52;101684.53;7941901;28;20044;-68
2021/07/22 11:32:02;;;;;;;13.85;8.00;;;;;;;25.33;37.47;101672.78;7940228;28;20453;-68
2021/07/22 11:35:57;;;;;;;15.38;8.88;;;;;;;25.34;36.87;101677.16;7942919;28;20121;-69
2021/07/22 11:39:49;;;;;;;13.63;8.50;;;;;;;25.33;37.27;101680.84;7941014;28;20621;-68
2021/07/22 11:43:45;;;;;;;21.63;8.55;;;;;;;25.37;37.24;101675.94;7941453;28;20785;-69
2021/07/22 11:47:35;;;;;;;18.23;10.60;;;;;;;25.41;37.65;101672.72;7941466;28;20062;-69
2021/07/22 11:51:28;;;;;;;17.88;10.40;;;;;;;25.46;37.18;101682.97;7942095;28;20037;-66
2021/07/22 11:55:19;;;;;;;16.48;10.15;;;;;;;25.46;37.16;101683.81;7942908;28;20026;-69
2021/07/22 11:59:11;;;;;;;12.57;8.65;;;;;;;25.47;37.42;101673.91;7944746;28;20044;-68
2021/07/22 12:03:01;;;;;;;14.98;8.27;;;;;;;25.46;37.00;101675.75;7943219;28;20034;-69
2021/07/22 12:06:53;;;;;;;11.63;7.15;;;;;;;25.47;37.10;101660.44;7943299;28;20042;-68
2021/07/22 12:10:45;;;;;;;13.57;6.53;;;;;;;25.52;37.69;101663.44;7939935;28;20037;-68
2021/07/22 12:14:38;;;;;;;10.48;6.78;;;;;;;25.56;37.20;101662.88;7942542;28;20087;-67
2021/07/22 12:18:28;;;;;;;9.32;6.43;;;;;;;25.57;37.51;101661.88;7938095;28;20026;-66
2021/07/22 12:22:19;;;;;;;13.10;6.30;;;;;;;25.57;37.63;101661.88;7940730;28;20461;-69
2021/07/22 12:26:10;;;;;;;10.70;6.38;;;;;;;25.55;37.85;101649.63;7942270;28;20041;-69
2021/07/22 12:30:17;;;;;;;10.18;6.68;;;;;;;25.52;37.17;101644.63;7939545;28;20913;-66
2021/07/22 12:34:09;;;;;;;11.32;7.15;;;;;;;25.50;37.05;101642.09;7942483;28;20026;-70
2021/07/22 12:38:01;;;;;;;12.00;6.53;;;;;;;25.53;37.24;101635.50;7940433;28;20068;-69
2021/07/22 12:41:51;;;;;;;11.50;6.30;;;;;;;25.52;37.27;101644.63;7938887;28;20053;-68
2021/07/22 12:45:44;;;;;;;8.55;5.63;;;;;;;25.51;37.47;101635.72;7939455;28;20399;-69
2021/07/22 12:49:42;;;;;;;12.02;5.20;;;;;;;25.52;36.86;101634.66;7936945;28;20105;-69
2021/07/22 12:53:33;;;;;;;9.05;5.03;;;;;;;25.51;37.17;101630.31;7939445;28;20040;-68
2021/07/22 12:57:40;;;;;;;7.60;4.80;;;;;;;25.49;37.02;101624.28;7937901;28;20025;-69
2021/07/22 13:01:38;;;;;;;11.00;4.45;;;;;;;25.53;37.53;101616.69;7937670;28;20038;-68
2021/07/22 13:05:28;;;;;;;12.43;4.45;;;;;;;25.54;37.55;101621.88;7937471;28;20036;-68
2021/07/22 13:09:20;;;;;;;8.93;5.13;;;;;;;25.53;37.56;101611.28;7936256;28;21707;-69
2021/07/22 13:13:10;;;;;;;6.15;3.72;;;;;;;25.49;36.90;101618.91;7938885;28;20026;-67
2021/07/22 13:17:01;;;;;;;7.38;4.32;;;;;;;25.43;37.17;101614.22;7939099;28;20037;-68
2021/07/22 13:20:52;;;;;;;7.97;4.43;;;;;;;25.34;37.23;101601.00;7935969;28;20034;-69
2021/07/22 13:24:48;;;;;;;7.47;4.53;;;;;;;25.27;37.41;101594.69;7938076;28;20117;-68
2021/07/22 13:28:39;;;;;;;8.07;4.10;;;;;;;25.22;37.28;101600.63;7949991;28;20113;-68
2021/07/22 13:32:31;;;;;;;6.53;4.07;;;;;;;25.19;37.36;101593.72;7936311;28;20022;-69
2021/07/22 13:36:21;;;;;;;6.40;4.13;;;;;;;25.17;37.62;101587.72;7935318;28;20034;-66
2021/07/22 13:40:18;;;;;;;9.75;3.65;;;;;;;25.12;37.48;101587.41;7938947;28;20063;-69
2021/07/22 13:44:09;;;;;;;7.10;4.33;;;;;;;25.04;37.35;101584.78;7938675;28;20026;-68
2021/07/22 13:48:00;;;;;;;7.75;4.22;;;;;;;24.94;37.11;101572.59;7937543;28;20112;-68
2021/07/22 13:51:51;;;;;;;7.05;3.33;;;;;;;24.91;37.71;101575.63;7935771;28;20525;-70
2021/07/22 13:55:42;;;;;;;5.22;3.20;;;;;;;24.86;37.33;101575.31;7940083;28;20543;-67
2021/07/22 13:59:33;;;;;;;5.03;3.78;;;;;;;24.84;37.73;101574.63;7937064;28;20032;-66
2021/07/22 14:03:23;;;;;;;5.95;3.70;;;;;;;24.84;37.66;101572.78;7939436;28;20029;-68
2021/07/22 14:07:14;;;;;;;9.80;3.35;;;;;;;24.84;37.73;101574.63;7938160;28;20049;-68
2021/07/22 14:11:05;;;;;;;5.05;3.58;;;;;;;24.86;37.72;101561.88;7937089;28;20033;-68
2021/07/22 14:14:56;;;;;;;6.20;3.55;;;;;;;24.83;37.23;101571.13;7936560;28;20034;-69
2021/07/22 14:18:46;;;;;;;4.70;3.42;;;;;;;24.85;37.63;101565.56;7936091;28;20068;-69
2021/07/22 14:22:37;;;;;;;7.00;3.92;;;;;;;24.80;37.28;101553.50;7934705;28;20083;-67
2021/07/22 14:26:28;;;;;;;4.45;3.20;;;;;;;24.84;37.29;101558.50;7937992;28;20037;-68
2021/07/22 14:30:19;;;;;;;13.85;3.80;;;;;;;24.80;37.37;101552.66;7936605;28;20430;-67
2021/07/22 14:34:09;;;;;;;5.50;3.42;;;;;;;24.78;37.81;101554.69;7932868;28;20604;-69
2021/07/22 14:38:00;;;;;;;6.97;3.22;;;;;;;24.73;37.34;101552.53;7936162;28;20034;-69
2021/07/22 14:41:50;;;;;;;7.28;3.60;;;;;;;24.67;37.45;101549.72;7939348;28;20030;-69
2021/07/22 14:45:41;;;;;;;4.18;2.97;;;;;;;24.61;37.89;101545.06;7942085;28;20418;-68
2021/07/22 14:49:32;;;;;;;6.43;3.17;;;;;;;24.58;37.55;101543.56;7937736;28;20038;-67
2021/07/22 14:53:22;;;;;;;12.82;3.70;;;;;;;24.54;37.88;101542.25;7939442;28;20084;-69
2021/07/22 14:57:13;;;;;;;7.05;3.40;;;;;;;24.50;38.09;101537.41;7942364;28;20032;-69
2021/07/22 15:01:05;;;;;;;7.95;3.20;;;;;;;24.47;37.27;101535.06;7940658;28;20053;-67
2021/07/22 15:04:56;;;;;;;7.78;3.88;;;;;;;24.43;37.72;101537.28;7942678;28;20037;-67
2021/07/22 15:08:46;;;;;;;6.15;3.70;;;;;;;24.43;37.82;101533.75;7941586;28;20083;-66
2021/07/22 15:12:37;;;;;;;6.55;3.33;;;;;;;24.41;37.92;101525.88;7941842;28;20472;-69
2021/07/22 15:16:27;;;;;;;4.80;3.17;;;;;;;24.39;37.93;101533.28;7938218;28;20044;-69
2021/07/22 15:20:18;;;;;;;4.40;3.13;;;;;;;24.38;37.66;101536.97;7899032;28;1124738;-68
2021/07/22 15:24:09;;;;;;;4.78;3.13;;;;;;;24.38;37.69;101520.84;7940408;28;20026;-68
2021/07/22 15:27:59;;;;;;;7.55;2.78;;;;;;;24.37;38.03;101524.53;7942075;28;20033;-68
2021/07/22 15:31:50;;;;;;;4.10;3.03;;;;;;;24.36;37.99;101528.25;7941822;28;20044;-69
2021/07/22 15:35:45;;;;;;;5.85;3.10;;;;;;;24.33;37.90;101525.91;7941225;28;20045;-69
2021/07/22 15:39:37;;;;;;;7.60;3.13;;;;;;;24.33;37.89;101528.59;7940064;28;20033;-69
2021/07/22 15:43:28;;;;;;;5.65;3.35;;;;;;;24.25;37.86;101516.03;7938501;28;20038;-69
2021/07/22 15:47:18;;;;;;;7.35;3.75;;;;;;;24.27;37.75;101522.06;7939981;28;20517;-69
2021/07/22 15:51:09;;;;;;;4.30;3.08;;;;;;;24.27;37.57;101519.38;7937226;28;20040;-67
2021/07/22 15:55:00;;;;;;;7.00;2.78;;;;;;;24.24;38.02;101506.28;7938683;28;20033;-68
2021/07/22 15:58:50;;;;;;;4.53;3.13;;;;;;;24.24;38.20;101505.44;7941447;28;20719;-68
2021/07/22 16:02:42;;;;;;;6.35;3.25;;;;;;;24.25;37.90;101496.38;7939962;28;20037;-69
2021/07/22 16:06:33;;;;;;;7.18;3.10;;;;;;;24.26;37.86;101498.91;7939995;28;20040;-69
2021/07/22 16:10:24;;;;;;;8.40;4.05;;;;;;;24.27;38.05;101499.75;7937372;28;20057;-69
2021/07/22 16:14:14;;;;;;;4.03;2.95;;;;;;;24.24;37.88;101492.03;7941640;28;20034;-67
2021/07/22 16:18:05;;;;;;;7.25;3.60;;;;;;;24.21;37.45;101495.06;7941450;28;20035;-68
2021/07/22 16:21:56;;;;;;;4.78;3.17;;;;;;;24.19;37.63;101489.06;7943827;28;20038;-68
2021/07/22 16:25:46;;;;;;;4.00;2.97;;;;;;;24.17;37.79;101491.06;7946615;28;20390;-68
2021/07/22 16:29:37;;;;;;;5.90;3.08;;;;;;;24.12;37.44;101486.22;7944973;28;20035;-69
2021/07/22 16:33:27;;;;;;;4.90;3.38;;;;;;;24.06;37.65;101486.09;7944813;28;20033;-68
2021/07/22 16:37:18;;;;;;;4.65;3.40;;;;;;;23.99;37.60;101477.06;7949145;28;20575;-68
2021/07/22 16:41:09;;;;;;;4.60;3.10;;;;;;;23.94;37.65;101480.28;7941187;28;20685;-68
2021/07/22 16:45:01;;;;;;;5.80;3.30;;;;;;;23.93;37.66;101481.28;7943759;28;20030;-68
2021/07/22 16:48:52;;;;;;;7.93;3.15;;;;;;;23.85;37.61;101467.91;7939478;28;20644;-69
2021/07/22 16:52:43;;;;;;;5.80;3.53;;;;;;;23.82;37.90;101474.44;7939989;28;20026;-69
2021/07/22 16:56:33;;;;;;;5.85;3.55;;;;;;;23.78;37.88;101469.63;7941133;28;20029;-68
2021/07/22 17:00:24;;;;;;;15.65;3.65;;;;;;;23.69;37.88;101458.06;7942140;28;20043;-68
2021/07/22 17:04:15;;;;;;;4.43;3.17;;;;;;;23.72;37.89;101468.47;7941003;28;20042;-68
2021/07/22 17:08:05;;;;;;;4.20;2.90;;;;;;;23.71;38.11;101463.25;7952740;28;20397;-70
2021/07/22 17:11:57;;;;;;;4.50;3.20;;;;;;;23.67;37.86;101468.09;7953114;28;20030;-69
2021/07/22 17:15:48;;;;;;;4.95;3.13;;;;;;;23.57;37.96;101459.44;7949492;28;20126;-70
2021/07/22 17:19:38;;;;;;;6.57;3.33;;;;;;;23.60;38.04;101460.91;7943162;28;20029;-71
2021/07/22 17:23:29;;;;;;;4.88;3.33;;;;;;;23.53;37.86;101455.41;7941444;28;20513;-70
2021/07/22 17:27:20;;;;;;;4.45;3.50;;;;;;;23.53;38.06;101466.16;7960880;28;20052;-66
2021/07/22 17:31:11;;;;;;;5.05;3.63;;;;;;;23.41;37.69;101451.41;7950024;28;20033;-68
2021/07/22 17:35:02;;;;;;;5.30;3.28;;;;;;;23.42;38.09;101471.84;7943426;28;20025;-70
2021/07/22 17:38:55;;;;;;;5.75;3.00;;;;;;;23.26;37.87;101448.59;7943354;28;20041;-68
2021/07/22 17:42:46;;;;;;;3.83;2.92;;;;;;;23.32;37.91;101468.53;7937253;28;20034;-67
2021/07/22 17:46:36;;;;;;;6.75;3.08;;;;;;;23.24;38.21;101460.50;7938988;28;20497;-68
2021/07/22 17:50:27;;;;;;;5.15;3.20;;;;;;;23.25;38.29;101478.25;7931887;28;20030;-70
2021/07/22 17:54:20;;;;;;;4.18;3.10;;;;;;;23.21;38.37;101471.53;7936249;28;20037;-68
2021/07/22 17:58:14;;;;;;;4.82;3.20;;;;;;;23.16;38.34;101479.28;7938623;28;20048;-71
2021/07/22 18:02:07;;;;;;;5.75;3.28;;;;;;;23.09;38.22;101480.91;7938114;28;20033;-72